Time;durP1;ratioP1;P1;durP2;ratioP2;P2;SDS_P1;SDS_P2;PMS_P1;PMS_P2;Temp;Humidity;BMP_temperature;BMP_pressure;BME280_temperature;BME280_humidity;BME280_pressure;Samples;Min_cycle;Max_cycle;Signal;HPM_P1;HPM_P2
2023/01/19 00:00:09;;;;;;;11.25;6.63;;;;;;;;;;5037249;28;20091;-80
2023/01/19 00:02:35;;;;;;;17.33;6.43;;;;;;;;;;5036772;28;20055;-81
2023/01/19 00:05:00;;;;;;;19.70;6.70;;;;;;;;;;5019030;28;20025;-81
2023/01/19 00:07:25;;;;;;;9.65;5.68;;;;;;;;;;5037479;28;20103;-79
2023/01/19 00:09:51;;;;;;;14.40;6.28;;;;;;;;;;5037099;28;20032;-81
2023/01/19 00:12:16;;;;;;;11.32;6.40;;;;;;;;;;5037224;28;20025;-82
2023/01/19 00:14:41;;;;;;;16.00;6.22;;;;;;;;;;5037249;28;20093;-80
2023/01/19 00:17:06;;;;;;;12.85;6.35;;;;;;;;;;5020857;28;20052;-80
2023/01/19 00:19:32;;;;;;;11.38;6.07;;;;;;;;;;5038386;28;20037;-81
2023/01/19 00:21:57;;;;;;;16.35;6.20;;;;;;;;;;5037235;28;20017;-79
2023/01/19 00:24:22;;;;;;;11.90;6.18;;;;;;;;;;5036699;28;20036;-80
2023/01/19 00:26:47;;;;;;;17.85;7.15;;;;;;;;;;5018753;28;20164;-80
2023/01/19 00:29:14;;;;;;;11.57;6.32;;;;;;;;;;5037599;28;20045;-82
2023/01/19 00:31:39;;;;;;;13.85;6.50;;;;;;;;;;5019583;28;20032;-81
2023/01/19 00:34:05;;;;;;;12.27;6.55;;;;;;;;;;5037498;28;20387;-80
2023/01/19 00:36:32;;;;;;;9.32;5.93;;;;;;;;;;5040443;28;20509;-81
2023/01/19 00:38:58;;;;;;;14.80;6.78;;;;;;;;;;5040702;28;20104;-80
2023/01/19 00:42:38;;;;;;;9.38;5.32;;;;;;;;;;5041173;28;20460;-80
2023/01/19 00:44:10;;;;;;;13.18;6.15;;;;;;;;;;5040389;28;20025;-79
2023/01/19 00:46:35;;;;;;;15.30;5.72;;;;;;;;;;4988859;28;20026;-78
2023/01/19 00:49:01;;;;;;;17.63;6.60;;;;;;;;;;5017170;28;20520;-79
2023/01/19 00:51:26;;;;;;;11.35;6.20;;;;;;;;;;5017784;28;20394;-77
2023/01/19 00:53:51;;;;;;;14.75;6.55;;;;;;;;;;5036110;28;20034;-76
2023/01/19 00:56:17;;;;;;;11.77;6.28;;;;;;;;;;5037581;28;20041;-76
2023/01/19 00:58:43;;;;;;;13.82;6.75;;;;;;;;;;5038315;28;20033;-77
2023/01/19 01:01:09;;;;;;;13.60;6.45;;;;;;;;;;5028247;28;20022;-77
2023/01/19 01:03:34;;;;;;;12.75;6.38;;;;;;;;;;5047317;28;20052;-76
2023/01/19 01:05:59;;;;;;;12.05;5.80;;;;;;;;;;5047497;28;20021;-77
2023/01/19 01:08:25;;;;;;;19.00;6.43;;;;;;;;;;5045888;28;20112;-77
2023/01/19 01:10:50;;;;;;;15.27;6.53;;;;;;;;;;5025933;28;20079;-76
2023/01/19 01:13:16;;;;;;;14.40;6.55;;;;;;;;;;5045101;28;20025;-77
2023/01/19 01:15:41;;;;;;;13.30;7.15;;;;;;;;;;5044035;28;20079;-77
2023/01/19 01:18:06;;;;;;;13.25;6.25;;;;;;;;;;5025227;28;20039;-78
2023/01/19 01:20:33;;;;;;;16.25;6.82;;;;;;;;;;5024603;28;20057;-77
2023/01/19 01:22:58;;;;;;;14.63;6.63;;;;;;;;;;5042186;28;20096;-80
2023/01/19 01:25:25;;;;;;;10.65;5.97;;;;;;;;;;5044506;28;20056;-80
2023/01/19 01:27:51;;;;;;;14.07;6.20;;;;;;;;;;5043305;28;20021;-79
2023/01/19 01:30:16;;;;;;;15.35;6.97;;;;;;;;;;5043431;28;20077;-81
2023/01/19 01:32:42;;;;;;;11.60;6.65;;;;;;;;;;5040923;28;20041;-80
2023/01/19 01:35:09;;;;;;;12.77;6.32;;;;;;;;;;5039348;28;20025;-81
2023/01/19 01:37:36;;;;;;;11.73;6.38;;;;;;;;;;5020774;28;20026;-81
2023/01/19 01:40:01;;;;;;;11.30;5.03;;;;;;;;;;5038906;28;20113;-81
2023/01/19 01:42:28;;;;;;;9.43;5.45;;;;;;;;;;5038677;28;20053;-81
2023/01/19 01:44:59;;;;;;;10.40;5.50;;;;;;;;;;5038130;28;20025;-82
2023/01/19 01:47:41;;;;;;;13.50;6.45;;;;;;;;;;5037375;28;20505;-82
2023/01/19 01:50:18;;;;;;;12.27;5.95;;;;;;;;;;5038213;28;20064;-81
2023/01/19 01:52:49;;;;;;;10.98;6.18;;;;;;;;;;5038572;28;20505;-82
2023/01/19 01:55:17;;;;;;;13.35;6.57;;;;;;;;;;5038554;28;20112;-82
2023/01/19 01:57:46;;;;;;;12.40;6.28;;;;;;;;;;5020193;28;20037;-81
2023/01/19 02:00:13;;;;;;;10.82;5.80;;;;;;;;;;5038082;28;20029;-82
2023/01/19 02:02:50;;;;;;;12.80;5.57;;;;;;;;;;5038141;28;20021;-81
2023/01/19 02:05:33;;;;;;;11.65;6.00;;;;;;;;;;5038313;28;20026;-81
2023/01/19 02:13:45;;;;;;;11.30;5.65;;;;;;;;;;5038492;28;20032;-82
2023/01/19 02:16:12;;;;;;;11.75;6.22;;;;;;;;;;5037785;28;20025;-82
2023/01/19 02:18:38;;;;;;;10.68;6.15;;;;;;;;;;5020470;28;20387;-81
2023/01/19 02:21:13;;;;;;;14.45;6.50;;;;;;;;;;5037794;28;20021;-82
2023/01/19 02:24:01;;;;;;;11.55;6.32;;;;;;;;;;5019585;28;20029;-81
2023/01/19 02:26:40;;;;;;;15.25;5.63;;;;;;;;;;5019743;28;20060;-82
2023/01/19 02:29:11;;;;;;;13.45;6.10;;;;;;;;;;5037794;28;20032;-81
2023/01/19 02:31:38;;;;;;;11.80;5.80;;;;;;;;;;5020369;28;20021;-82
2023/01/19 02:34:05;;;;;;;12.23;6.50;;;;;;;;;;5019778;28;20022;-82
2023/01/19 02:36:38;;;;;;;12.98;5.85;;;;;;;;;;5019521;28;20029;-82
2023/01/19 02:39:05;;;;;;;11.43;5.50;;;;;;;;;;5037350;28;20036;-82
2023/01/19 02:41:39;;;;;;;14.60;6.85;;;;;;;;;;5037851;28;20258;-81
2023/01/19 02:44:07;;;;;;;10.32;5.63;;;;;;;;;;5037600;28;20025;-81
2023/01/19 02:46:33;;;;;;;9.57;5.63;;;;;;;;;;5037625;28;20029;-82
2023/01/19 02:48:59;;;;;;;10.93;5.45;;;;;;;;;;5019347;28;20029;-81
2023/01/19 02:51:25;;;;;;;11.38;6.57;;;;;;;;;;5036956;28;20017;-80
2023/01/19 02:54:21;;;;;;;10.73;6.20;;;;;;;;;;5037137;28;20453;-82
2023/01/19 02:57:17;;;;;;;11.95;5.57;;;;;;;;;;5036483;28;20079;-82
2023/01/19 02:59:59;;;;;;;14.27;6.07;;;;;;;;;;5037249;28;20071;-80
2023/01/19 03:02:38;;;;;;;11.52;5.55;;;;;;;;;;5036959;28;20033;-81
2023/01/19 03:05:16;;;;;;;9.57;5.05;;;;;;;;;;5037611;28;20028;-80
2023/01/19 03:08:16;;;;;;;15.45;5.55;;;;;;;;;;5036832;28;20029;-82
2023/01/19 03:11:00;;;;;;;13.48;5.57;;;;;;;;;;5037372;28;20437;-82
2023/01/19 03:13:46;;;;;;;12.50;5.32;;;;;;;;;;5037337;28;20018;-81
2023/01/19 03:16:33;;;;;;;10.70;4.65;;;;;;;;;;5019512;28;20033;-81
2023/01/19 03:19:18;;;;;;;11.00;5.05;;;;;;;;;;5037585;28;20497;-80
2023/01/19 03:21:46;;;;;;;9.23;4.63;;;;;;;;;;5037075;28;20029;-81
2023/01/19 03:24:14;;;;;;;10.65;5.38;;;;;;;;;;5020052;28;20037;-81
2023/01/19 03:26:45;;;;;;;8.27;4.68;;;;;;;;;;5020305;28;20029;-82
2023/01/19 03:29:13;;;;;;;16.42;5.53;;;;;;;;;;5019835;28;20448;-82
2023/01/19 03:31:40;;;;;;;10.23;5.43;;;;;;;;;;5019209;28;20048;-81
2023/01/19 03:34:10;;;;;;;13.50;5.88;;;;;;;;;;5036789;28;20022;-81
2023/01/19 03:36:49;;;;;;;16.08;6.10;;;;;;;;;;5019846;28;20023;-82
2023/01/19 03:39:21;;;;;;;11.50;5.03;;;;;;;;;;5037656;28;20075;-82
2023/01/19 03:41:48;;;;;;;13.30;5.70;;;;;;;;;;5019751;28;20112;-83
2023/01/19 03:44:15;;;;;;;10.52;5.50;;;;;;;;;;5019937;28;20017;-82
2023/01/19 03:46:40;;;;;;;13.35;5.53;;;;;;;;;;5037158;28;20032;-80
2023/01/19 03:49:06;;;;;;;9.23;4.93;;;;;;;;;;5037127;28;20034;-82
2023/01/19 03:51:35;;;;;;;14.32;5.45;;;;;;;;;;5019437;28;20025;-81
2023/01/19 03:54:00;;;;;;;11.40;5.90;;;;;;;;;;5037437;28;20018;-81
2023/01/19 03:56:25;;;;;;;8.85;5.20;;;;;;;;;;5037334;28;20092;-81
2023/01/19 03:58:51;;;;;;;12.80;5.28;;;;;;;;;;5037118;28;20038;-80
2023/01/19 04:01:19;;;;;;;8.73;4.78;;;;;;;;;;5037152;28;20029;-81
2023/01/19 04:03:46;;;;;;;13.73;6.10;;;;;;;;;;5018740;28;20030;-82
2023/01/19 04:06:11;;;;;;;11.23;5.13;;;;;;;;;;5037416;28;20022;-82
2023/01/19 04:08:36;;;;;;;10.70;5.20;;;;;;;;;;5019047;28;20040;-81
2023/01/19 04:11:02;;;;;;;11.48;5.35;;;;;;;;;;5040087;28;20037;-81
2023/01/19 04:13:28;;;;;;;9.93;4.97;;;;;;;;;;5040953;28;20074;-81
2023/01/19 04:15:54;;;;;;;10.55;4.47;;;;;;;;;;5040778;28;20033;-82
2023/01/19 04:18:19;;;;;;;11.82;4.85;;;;;;;;;;5039859;28;20036;-82
2023/01/19 04:20:44;;;;;;;12.40;5.43;;;;;;;;;;5040585;28;20478;-80
2023/01/19 04:23:10;;;;;;;12.50;5.32;;;;;;;;;;5041231;28;20427;-82
2023/01/19 04:25:35;;;;;;;8.80;4.38;;;;;;;;;;5040287;28;20581;-82
2023/01/19 04:28:00;;;;;;;10.63;5.22;;;;;;;;;;5039905;28;20017;-83
2023/01/19 04:30:26;;;;;;;12.73;5.07;;;;;;;;;;5040446;28;20025;-81
2023/01/19 04:32:52;;;;;;;9.52;4.97;;;;;;;;;;5039836;28;20025;-81
2023/01/19 04:35:17;;;;;;;9.20;4.90;;;;;;;;;;5039760;28;20021;-81
2023/01/19 04:37:43;;;;;;;9.82;5.05;;;;;;;;;;5039983;28;20068;-82
2023/01/19 04:40:09;;;;;;;8.63;4.68;;;;;;;;;;5021832;28;20022;-81
2023/01/19 04:42:35;;;;;;;12.77;4.88;;;;;;;;;;5040473;28;20034;-82
2023/01/19 04:45:00;;;;;;;8.98;4.90;;;;;;;;;;5040592;28;20033;-81
2023/01/19 04:47:25;;;;;;;9.82;4.75;;;;;;;;;;5022621;28;20032;-81
2023/01/19 04:49:51;;;;;;;8.35;4.93;;;;;;;;;;5040701;28;20021;-81
2023/01/19 04:52:16;;;;;;;9.18;4.90;;;;;;;;;;5041395;28;20075;-82
2023/01/19 04:54:41;;;;;;;9.57;4.55;;;;;;;;;;5041325;28;20489;-84
2023/01/19 04:57:06;;;;;;;8.48;4.95;;;;;;;;;;5041265;28;20099;-81
2023/01/19 04:59:32;;;;;;;7.68;4.38;;;;;;;;;;5041701;28;20397;-82
2023/01/19 05:01:57;;;;;;;8.75;5.15;;;;;;;;;;5041412;28;20140;-82
2023/01/19 05:04:24;;;;;;;12.38;5.18;;;;;;;;;;5022950;28;20018;-83
2023/01/19 05:06:50;;;;;;;8.80;4.82;;;;;;;;;;5040527;28;20025;-80
2023/01/19 05:09:15;;;;;;;16.88;4.90;;;;;;;;;;5040985;28;20037;-82
2023/01/19 05:11:41;;;;;;;8.48;4.18;;;;;;;;;;5041279;28;20141;-82
2023/01/19 05:14:06;;;;;;;9.48;4.25;;;;;;;;;;5023958;28;20031;-81
2023/01/19 05:16:32;;;;;;;11.15;4.57;;;;;;;;;;5041174;28;20033;-81
2023/01/19 05:18:57;;;;;;;8.40;4.55;;;;;;;;;;5040310;28;20030;-81
2023/01/19 05:21:22;;;;;;;9.88;5.05;;;;;;;;;;5039967;28;20572;-85
2023/01/19 05:23:47;;;;;;;9.80;5.13;;;;;;;;;;5039432;28;20025;-80
2023/01/19 05:26:13;;;;;;;14.32;5.50;;;;;;;;;;5038981;28;20025;-82
2023/01/19 05:28:38;;;;;;;11.73;5.00;;;;;;;;;;5038982;28;20037;-82
2023/01/19 05:31:03;;;;;;;12.02;5.13;;;;;;;;;;5021366;28;20021;-80
2023/01/19 05:33:29;;;;;;;13.68;4.85;;;;;;;;;;5039117;28;20030;-81
2023/01/19 05:35:54;;;;;;;12.32;5.20;;;;;;;;;;5038727;28;20030;-82
2023/01/19 05:38:20;;;;;;;8.77;5.22;;;;;;;;;;5021904;28;20018;-81
2023/01/19 05:40:46;;;;;;;11.18;6.00;;;;;;;;;;5022171;28;20040;-83
2023/01/19 05:43:12;;;;;;;11.65;4.82;;;;;;;;;;5039539;28;20483;-82
2023/01/19 05:45:40;;;;;;;11.05;4.95;;;;;;;;;;5021387;28;20466;-82
2023/01/19 05:48:07;;;;;;;12.18;5.80;;;;;;;;;;5039289;28;20036;-83
2023/01/19 05:50:33;;;;;;;13.55;6.13;;;;;;;;;;5039051;28;20109;-82
2023/01/19 05:52:58;;;;;;;11.45;5.22;;;;;;;;;;5039286;28;20410;-80
2023/01/19 05:55:24;;;;;;;12.00;5.57;;;;;;;;;;5039365;28;20029;-82
2023/01/19 05:57:49;;;;;;;15.65;5.40;;;;;;;;;;5038866;28;20033;-81
2023/01/19 06:00:17;;;;;;;7.40;4.50;;;;;;;;;;5039329;28;20108;-82
2023/01/19 06:02:43;;;;;;;18.70;5.53;;;;;;;;;;5021156;28;20029;-82
2023/01/19 06:05:08;;;;;;;8.63;4.70;;;;;;;;;;5038651;28;20029;-82
2023/01/19 06:07:34;;;;;;;8.23;4.45;;;;;;;;;;5038816;28;20037;-82
2023/01/19 06:09:59;;;;;;;9.10;4.90;;;;;;;;;;5038751;28;20025;-82
2023/01/19 06:12:25;;;;;;;10.95;4.85;;;;;;;;;;5020315;28;20032;-81
2023/01/19 06:14:50;;;;;;;9.85;4.40;;;;;;;;;;5038170;28;20117;-81
2023/01/19 06:17:15;;;;;;;12.85;4.50;;;;;;;;;;5038107;28;20033;-81
2023/01/19 06:19:41;;;;;;;9.27;4.32;;;;;;;;;;5020606;28;20021;-81
2023/01/19 06:22:06;;;;;;;11.80;4.68;;;;;;;;;;5020561;28;20116;-81
2023/01/19 06:24:32;;;;;;;8.55;4.63;;;;;;;;;;5040509;28;20055;-81
2023/01/19 06:26:59;;;;;;;11.10;3.90;;;;;;;;;;5032584;28;20025;-81
2023/01/19 06:29:26;;;;;;;11.18;4.25;;;;;;;;;;5032651;28;20027;-80
2023/01/19 06:31:51;;;;;;;12.13;4.28;;;;;;;;;;5056333;28;20023;-82
2023/01/19 06:34:17;;;;;;;9.60;4.70;;;;;;;;;;5058014;28;20009;-82
2023/01/19 06:36:43;;;;;;;6.25;3.80;;;;;;;;;;5059504;28;20040;-81
2023/01/19 06:39:08;;;;;;;7.53;3.80;;;;;;;;;;5058345;28;20034;-82
2023/01/19 06:41:34;;;;;;;9.23;3.50;;;;;;;;;;5041628;28;20101;-82
2023/01/19 06:44:00;;;;;;;8.70;4.30;;;;;;;;;;5058293;28;20013;-81
2023/01/19 06:46:25;;;;;;;9.73;4.05;;;;;;;;;;5059207;28;20036;-81
2023/01/19 06:48:51;;;;;;;8.93;3.80;;;;;;;;;;5042098;28;20012;-82
2023/01/19 06:51:16;;;;;;;8.70;4.70;;;;;;;;;;5059013;28;20036;-80
2023/01/19 06:53:43;;;;;;;8.93;4.13;;;;;;;;;;5059158;28;20112;-81
2023/01/19 06:56:08;;;;;;;8.20;4.55;;;;;;;;;;5057768;28;20009;-81
2023/01/19 06:58:34;;;;;;;7.07;3.60;;;;;;;;;;5058699;28;20044;-81
2023/01/19 07:01:06;;;;;;;10.85;4.25;;;;;;;;;;5058023;28;20018;-82
2023/01/19 07:03:32;;;;;;;11.23;4.65;;;;;;;;;;5058291;28;20017;-81
2023/01/19 07:05:59;;;;;;;6.82;3.40;;;;;;;;;;5040537;28;20092;-81
2023/01/19 07:08:24;;;;;;;8.75;3.97;;;;;;;;;;5057769;28;20034;-80
2023/01/19 07:10:49;;;;;;;5.90;3.50;;;;;;;;;;5055263;28;20026;-81
2023/01/19 07:13:14;;;;;;;7.28;3.30;;;;;;;;;;5038337;28;20119;-79
2023/01/19 07:15:40;;;;;;;7.13;3.65;;;;;;;;;;5045810;28;20017;-81
2023/01/19 07:18:06;;;;;;;7.57;3.85;;;;;;;;;;5038114;28;20048;-81
2023/01/19 07:20:36;;;;;;;7.68;3.92;;;;;;;;;;5027138;28;20041;-81
2023/01/19 07:23:01;;;;;;;7.13;3.45;;;;;;;;;;5020706;28;20079;-80
2023/01/19 07:25:27;;;;;;;7.93;4.15;;;;;;;;;;5021272;28;20500;-81
2023/01/19 07:27:57;;;;;;;11.68;3.53;;;;;;;;;;5104027;22;20049;-81
2023/01/19 07:30:22;;;;;;;7.90;3.85;;;;;;;;;;5015409;28;20029;-81
2023/01/19 07:32:47;;;;;;;7.25;4.10;;;;;;;;;;4997985;28;20025;-81
2023/01/19 07:35:14;;;;;;;10.02;4.10;;;;;;;;;;5015563;28;20044;-79
2023/01/19 07:37:39;;;;;;;8.85;4.40;;;;;;;;;;4998251;28;20457;-81
2023/01/19 07:40:05;;;;;;;7.50;3.65;;;;;;;;;;5016262;28;20057;-81
2023/01/19 07:42:30;;;;;;;7.82;4.32;;;;;;;;;;4998781;28;20018;-82
2023/01/19 07:44:55;;;;;;;6.38;4.00;;;;;;;;;;5015899;28;20036;-83
2023/01/19 07:47:21;;;;;;;8.75;3.17;;;;;;;;;;5017700;28;20100;-80
2023/01/19 07:49:46;;;;;;;6.63;3.50;;;;;;;;;;5000275;28;20030;-80
2023/01/19 07:52:11;;;;;;;7.63;3.40;;;;;;;;;;5017846;28;20033;-79
2023/01/19 07:54:36;;;;;;;4.95;3.10;;;;;;;;;;5016864;28;20414;-81
2023/01/19 07:57:02;;;;;;;8.70;3.45;;;;;;;;;;5016247;28;20032;-81
2023/01/19 07:59:29;;;;;;;6.88;3.13;;;;;;;;;;5016824;28;20030;-81
2023/01/19 08:01:54;;;;;;;5.90;3.35;;;;;;;;;;5017035;28;20060;-81
2023/01/19 08:04:19;;;;;;;8.13;3.13;;;;;;;;;;5016995;28;20022;-81
2023/01/19 08:06:46;;;;;;;7.32;3.25;;;;;;;;;;5016899;28;20030;-81
2023/01/19 08:09:11;;;;;;;5.57;2.83;;;;;;;;;;4999743;28;20025;-81
2023/01/19 08:11:37;;;;;;;5.28;2.83;;;;;;;;;;5017875;28;20078;-81
2023/01/19 08:14:02;;;;;;;7.65;3.08;;;;;;;;;;5000446;28;20029;-81
2023/01/19 08:16:28;;;;;;;6.03;3.17;;;;;;;;;;5017489;28;20029;-80
2023/01/19 08:18:53;;;;;;;5.50;2.85;;;;;;;;;;4999884;28;20061;-82
2023/01/19 08:21:18;;;;;;;14.60;3.72;;;;;;;;;;5017652;28;20025;-81
2023/01/19 08:23:44;;;;;;;7.50;3.47;;;;;;;;;;5017588;28;20026;-81
2023/01/19 08:26:33;;;;;;;5.72;3.53;;;;;;;;;;5000046;28;20030;-80
2023/01/19 08:29:01;;;;;;;7.70;3.28;;;;;;;;;;5018881;28;20065;-80
2023/01/19 08:31:27;;;;;;;7.47;4.20;;;;;;;;;;5018631;28;20026;-82
2023/01/19 08:33:53;;;;;;;8.32;4.15;;;;;;;;;;5018921;28;20370;-81
2023/01/19 08:36:19;;;;;;;6.38;3.58;;;;;;;;;;4999357;28;20076;-81
2023/01/19 08:38:45;;;;;;;9.50;3.78;;;;;;;;;;4999362;28;20072;-83
2023/01/19 08:41:11;;;;;;;7.55;3.28;;;;;;;;;;5017048;28;20022;-82
2023/01/19 08:43:37;;;;;;;7.10;3.50;;;;;;;;;;4997307;28;20397;-79
2023/01/19 08:46:02;;;;;;;6.43;3.17;;;;;;;;;;5015600;28;20022;-80
2023/01/19 08:48:28;;;;;;;6.03;2.38;;;;;;;;;;4997551;28;20406;-83
2023/01/19 08:54:09;;;;;;;6.97;3.20;;;;;;;;;;4963824;28;20038;-81
2023/01/19 08:56:35;;;;;;;6.25;3.03;;;;;;;;;;5019341;28;20030;-79
2023/01/19 08:59:00;;;;;;;6.95;2.72;;;;;;;;;;5020589;28;20033;-80
2023/01/19 09:01:28;;;;;;;10.65;3.88;;;;;;;;;;5003272;28;20406;-82
2023/01/19 09:03:53;;;;;;;9.10;3.28;;;;;;;;;;5020254;28;20386;-81
2023/01/19 09:06:18;;;;;;;5.45;3.38;;;;;;;;;;5021175;28;20108;-82
2023/01/19 09:08:44;;;;;;;10.02;3.88;;;;;;;;;;5020832;28;20049;-82
2023/01/19 09:11:11;;;;;;;9.45;4.80;;;;;;;;;;5020945;28;20040;-82
2023/01/19 09:13:36;;;;;;;8.57;3.67;;;;;;;;;;5020529;28;20494;-81
2023/01/19 09:16:02;;;;;;;6.88;3.75;;;;;;;;;;5021390;28;20109;-81
2023/01/19 09:18:28;;;;;;;8.82;3.42;;;;;;;;;;5020617;28;20029;-83
2023/01/19 09:20:56;;;;;;;6.18;3.13;;;;;;;;;;5021222;28;20080;-82
2023/01/19 09:23:24;;;;;;;6.40;3.30;;;;;;;;;;5020873;28;20033;-83
2023/01/19 09:25:59;;;;;;;5.32;2.70;;;;;;;;;;5002954;28;20022;-81
2023/01/19 09:28:25;;;;;;;6.95;3.25;;;;;;;;;;5020207;28;20026;-81
2023/01/19 09:30:51;;;;;;;5.30;2.83;;;;;;;;;;5020983;28;20030;-82
2023/01/19 09:33:18;;;;;;;6.55;3.25;;;;;;;;;;5021203;28;20032;-82
2023/01/19 09:35:44;;;;;;;7.25;3.30;;;;;;;;;;5020973;28;20033;-82
2023/01/19 09:38:10;;;;;;;4.20;2.42;;;;;;;;;;5020842;28;20076;-82
2023/01/19 09:40:43;;;;;;;5.25;3.03;;;;;;;;;;5020861;28;20034;-81
2023/01/19 09:43:36;;;;;;;5.55;2.67;;;;;;;;;;5020044;28;20029;-82
2023/01/19 09:46:19;;;;;;;4.65;2.50;;;;;;;;;;5002626;28;20036;-82
2023/01/19 09:48:56;;;;;;;6.93;2.50;;;;;;;;;;5020344;28;20046;-82
2023/01/19 09:51:27;;;;;;;6.30;2.80;;;;;;;;;;5019934;28;20095;-83
2023/01/19 09:54:15;;;;;;;5.43;2.65;;;;;;;;;;5002194;28;20021;-81
2023/01/19 09:56:45;;;;;;;6.88;2.88;;;;;;;;;;5020347;28;20025;-81
2023/01/19 09:59:25;;;;;;;5.85;2.75;;;;;;;;;;5019657;28;20077;-81
2023/01/19 10:02:05;;;;;;;7.60;3.25;;;;;;;;;;5020531;28;20033;-81
2023/01/19 10:04:39;;;;;;;8.43;3.20;;;;;;;;;;5019755;28;20081;-81
2023/01/19 10:07:42;;;;;;;6.70;3.25;;;;;;;;;;5018962;28;20030;-83
2023/01/19 10:10:29;;;;;;;5.93;2.85;;;;;;;;;;5021114;28;20037;-78
2023/01/19 10:13:18;;;;;;;5.88;3.05;;;;;;;;;;5020435;28;20049;-77
2023/01/19 10:16:33;;;;;;;5.82;2.75;;;;;;;;;;5003962;28;20080;-77
2023/01/19 10:19:16;;;;;;;;;;;;;;;;;;4959956;28;20381;-77
2023/01/19 10:21:44;;;;;;;6.10;2.70;;;;;;;;;;4960307;29;19993;-77
2023/01/19 10:24:24;;;;;;;13.80;2.75;;;;;;;;;;4984758;28;20149;-77
2023/01/19 10:26:52;;;;;;;5.07;2.80;;;;;;;;;;5003698;28;20107;-75
2023/01/19 10:29:27;;;;;;;9.35;2.95;;;;;;;;;;5019941;28;20040;-76
2023/01/19 10:32:07;;;;;;;7.18;3.22;;;;;;;;;;5020752;28;20462;-77
2023/01/19 10:34:35;;;;;;;6.97;2.90;;;;;;;;;;5019836;28;20036;-81
2023/01/19 10:37:16;;;;;;;4.00;2.83;;;;;;;;;;5001179;28;20022;-81
2023/01/19 10:39:50;;;;;;;4.38;2.30;;;;;;;;;;5018705;28;20057;-82
2023/01/19 10:42:16;;;;;;;4.28;2.67;;;;;;;;;;5001762;28;20040;-82
2023/01/19 10:44:41;;;;;;;4.03;2.35;;;;;;;;;;5002720;28;20113;-81
2023/01/19 10:47:15;;;;;;;3.75;2.00;;;;;;;;;;5003655;28;20069;-80
2023/01/19 10:49:42;;;;;;;4.43;2.30;;;;;;;;;;5002722;28;20429;-82
2023/01/19 10:52:27;;;;;;;4.60;2.47;;;;;;;;;;5002085;28;20068;-84
2023/01/19 10:54:53;;;;;;;5.60;2.45;;;;;;;;;;5021004;28;20030;-84
2023/01/19 10:57:37;;;;;;;5.18;2.88;;;;;;;;;;5002557;28;20483;-84
2023/01/19 11:00:04;;;;;;;5.90;2.73;;;;;;;;;;5024745;28;20120;-84
2023/01/19 11:02:31;;;;;;;7.20;3.08;;;;;;;;;;5005240;28;20034;-83
2023/01/19 11:04:59;;;;;;;6.45;2.75;;;;;;;;;;5022557;28;20088;-83
2023/01/19 11:07:32;;;;;;;6.90;3.10;;;;;;;;;;5024026;28;20021;-82
2023/01/19 11:10:19;;;;;;;7.63;3.08;;;;;;;;;;5005090;28;20494;-82
2023/01/19 11:13:16;;;;;;;6.80;2.80;;;;;;;;;;5018035;28;20037;-84
2023/01/19 11:15:45;;;;;;;6.03;3.45;;;;;;;;;;5000553;28;20467;-84
2023/01/19 11:18:26;;;;;;;9.55;3.03;;;;;;;;;;5017519;28;20121;-83
2023/01/19 11:20:53;;;;;;;6.05;2.83;;;;;;;;;;5017709;28;20075;-84
2023/01/19 11:23:32;;;;;;;6.13;3.03;;;;;;;;;;5018486;28;20029;-83
2023/01/19 11:26:00;;;;;;;6.22;3.00;;;;;;;;;;5018225;28;20032;-84
2023/01/19 11:28:36;;;;;;;7.35;3.38;;;;;;;;;;4999408;28;20080;-84
2023/01/19 11:31:02;;;;;;;8.13;2.80;;;;;;;;;;5017973;28;20029;-84
2023/01/19 11:33:36;;;;;;;7.70;2.83;;;;;;;;;;5016646;28;20026;-83
2023/01/19 11:36:13;;;;;;;6.75;3.03;;;;;;;;;;5017480;28;20025;-85
2023/01/19 11:38:43;;;;;;;7.55;3.13;;;;;;;;;;5018070;28;20112;-85
2023/01/19 11:41:32;;;;;;;5.57;3.17;;;;;;;;;;5018346;28;20029;-84
2023/01/19 11:44:09;;;;;;;5.45;3.17;;;;;;;;;;4999576;28;20058;-84
2023/01/19 11:46:42;;;;;;;6.55;3.03;;;;;;;;;;5019371;28;20029;-84
2023/01/19 11:49:16;;;;;;;4.60;2.72;;;;;;;;;;5017849;28;20022;-84
2023/01/19 11:51:57;;;;;;;7.50;2.95;;;;;;;;;;5000024;28;20026;-83
2023/01/19 11:54:30;;;;;;;6.50;2.95;;;;;;;;;;5019655;28;20096;-83
2023/01/19 11:56:58;;;;;;;6.65;3.08;;;;;;;;;;5002189;28;20026;-83
2023/01/19 11:59:24;;;;;;;5.90;3.15;;;;;;;;;;5001820;28;20371;-84
2023/01/19 12:01:55;;;;;;;6.47;3.10;;;;;;;;;;5019010;28;20032;-84
2023/01/19 12:04:33;;;;;;;7.85;3.20;;;;;;;;;;5001498;28;20125;-83
2023/01/19 12:07:06;;;;;;;6.13;2.70;;;;;;;;;;5019267;28;20093;-84
2023/01/19 12:09:54;;;;;;;4.85;2.70;;;;;;;;;;5020323;28;20030;-86
2023/01/19 12:12:25;;;;;;;7.30;3.05;;;;;;;;;;5020592;28;20029;-84
2023/01/19 12:15:07;;;;;;;5.43;2.88;;;;;;;;;;5020407;28;20021;-84
2023/01/19 12:17:39;;;;;;;4.68;3.00;;;;;;;;;;5019681;28;20029;-85
2023/01/19 12:20:20;;;;;;;7.40;2.92;;;;;;;;;;5020903;28;20391;-84
2023/01/19 12:22:53;;;;;;;9.18;2.83;;;;;;;;;;5004052;28;20046;-82
2023/01/19 12:25:30;;;;;;;6.70;3.22;;;;;;;;;;5022498;28;20057;-84
2023/01/19 12:27:57;;;;;;;6.28;2.42;;;;;;;;;;5021738;28;20450;-84
2023/01/19 12:30:26;;;;;;;5.10;2.88;;;;;;;;;;5022670;28;20029;-84
2023/01/19 12:33:27;;;;;;;4.75;2.55;;;;;;;;;;5027243;28;20091;-83
2023/01/19 12:36:02;;;;;;;4.28;2.58;;;;;;;;;;5027196;28;20021;-84
2023/01/19 12:38:40;;;;;;;5.30;2.50;;;;;;;;;;5008784;28;20437;-82
2023/01/19 12:41:28;;;;;;;3.38;2.20;;;;;;;;;;5027506;28;20032;-83
2023/01/19 12:44:15;;;;;;;3.40;2.13;;;;;;;;;;5009615;28;20025;-83
2023/01/19 12:47:09;;;;;;;3.58;2.03;;;;;;;;;;5011524;28;20143;-83
2023/01/19 12:49:54;;;;;;;5.95;1.95;;;;;;;;;;4997210;28;20033;-83
2023/01/19 12:52:46;;;;;;;6.13;2.00;;;;;;;;;;5027450;28;20049;-84
2023/01/19 12:55:11;;;;;;;3.35;1.92;;;;;;;;;;5027291;28;20026;-83
2023/01/19 12:57:56;;;;;;;3.47;1.90;;;;;;;;;;5026575;28;20505;-83
2023/01/19 13:00:21;;;;;;;3.00;1.95;;;;;;;;;;5026136;28;20485;-82
2023/01/19 13:02:51;;;;;;;3.83;1.80;;;;;;;;;;5027993;28;20026;-82
2023/01/19 13:05:31;;;;;;;4.30;2.10;;;;;;;;;;5009240;28;20026;-82
2023/01/19 13:08:05;;;;;;;5.00;2.28;;;;;;;;;;5026918;28;20025;-84
2023/01/19 13:10:59;;;;;;;9.73;2.85;;;;;;;;;;5008836;28;20064;-83
2023/01/19 13:13:42;;;;;;;4.28;2.45;;;;;;;;;;5027799;28;20033;-82
2023/01/19 13:16:16;;;;;;;3.38;2.15;;;;;;;;;;5027814;28;20041;-83
2023/01/19 13:18:43;;;;;;;3.38;1.75;;;;;;;;;;5027961;28;20034;-83
2023/01/19 13:21:10;;;;;;;3.95;1.65;;;;;;;;;;5027231;28;20041;-83
2023/01/19 13:23:50;;;;;;;4.60;2.05;;;;;;;;;;5027029;28;20041;-83
2023/01/19 13:26:20;;;;;;;2.92;1.77;;;;;;;;;;5028198;28;20026;-83
2023/01/19 13:28:54;;;;;;;2.90;1.83;;;;;;;;;;5026199;28;20455;-83
2023/01/19 13:31:20;;;;;;;4.07;1.73;;;;;;;;;;5026832;28;20022;-82
2023/01/19 13:33:49;;;;;;;3.10;1.80;;;;;;;;;;5026660;28;20022;-83
2023/01/19 13:36:32;;;;;;;4.82;1.67;;;;;;;;;;5026775;28;20041;-83
2023/01/19 13:39:00;;;;;;;3.83;1.98;;;;;;;;;;5026977;28;20021;-84
2023/01/19 13:41:29;;;;;;;3.80;2.05;;;;;;;;;;5027398;28;20029;-84
2023/01/19 13:44:07;;;;;;;3.97;1.83;;;;;;;;;;5024972;28;20501;-84
2023/01/19 13:46:37;;;;;;;3.25;1.63;;;;;;;;;;5025285;28;20030;-83
2023/01/19 13:49:25;;;;;;;2.75;1.88;;;;;;;;;;5008468;28;20084;-83
2023/01/19 13:52:24;;;;;;;6.60;1.90;;;;;;;;;;5026693;28;20014;-83
2023/01/19 13:54:58;;;;;;;4.63;1.95;;;;;;;;;;5026156;28;20074;-82
2023/01/19 13:57:29;;;;;;;3.78;1.85;;;;;;;;;;5026543;28;20052;-81
2023/01/19 14:00:03;;;;;;;3.92;1.90;;;;;;;;;;5026121;28;20025;-82
2023/01/19 14:02:28;;;;;;;3.78;1.80;;;;;;;;;;5025358;28;20030;-82
2023/01/19 14:04:56;;;;;;;3.30;2.13;;;;;;;;;;5023987;28;20036;-83
2023/01/19 14:07:25;;;;;;;4.32;1.95;;;;;;;;;;5025467;28;20029;-83
2023/01/19 14:10:13;;;;;;;4.47;2.30;;;;;;;;;;5008154;28;20095;-83
2023/01/19 14:12:38;;;;;;;3.75;1.90;;;;;;;;;;5025801;28;20026;-82
2023/01/19 14:15:10;;;;;;;4.15;2.13;;;;;;;;;;5025032;28;20101;-82
2023/01/19 14:17:35;;;;;;;3.47;1.75;;;;;;;;;;5025173;28;20025;-83
2023/01/19 14:20:00;;;;;;;3.15;1.92;;;;;;;;;;5024507;28;20025;-84
2023/01/19 14:22:40;;;;;;;4.10;1.80;;;;;;;;;;5008249;28;20057;-84
2023/01/19 14:25:26;;;;;;;3.08;1.75;;;;;;;;;;5025016;28;20493;-83
2023/01/19 14:28:28;;;;;;;2.95;1.80;;;;;;;;;;5025509;28;20084;-83
2023/01/19 14:31:23;;;;;;;3.33;1.92;;;;;;;;;;5008088;28;20113;-84
2023/01/19 14:33:57;;;;;;;4.97;1.80;;;;;;;;;;5022339;28;20395;-83
2023/01/19 14:36:38;;;;;;;5.60;2.30;;;;;;;;;;5025040;28;20125;-83
2023/01/19 14:39:04;;;;;;;4.68;2.10;;;;;;;;;;5025787;28;20098;-83
2023/01/19 14:41:51;;;;;;;3.90;2.10;;;;;;;;;;5026132;28;20029;-82
2023/01/19 14:44:22;;;;;;;5.00;1.98;;;;;;;;;;5008931;28;20029;-82
2023/01/19 14:46:48;;;;;;;4.07;2.17;;;;;;;;;;5026571;28;20085;-83
2023/01/19 14:49:20;;;;;;;3.92;1.90;;;;;;;;;;5025622;28;20052;-83
2023/01/19 14:51:47;;;;;;;5.43;2.30;;;;;;;;;;5025927;28;20033;-82
2023/01/19 14:54:22;;;;;;;3.85;2.17;;;;;;;;;;5025015;28;20033;-83
2023/01/19 14:56:47;;;;;;;3.85;2.30;;;;;;;;;;5007313;28;20030;-82
2023/01/19 14:59:12;;;;;;;5.05;2.47;;;;;;;;;;5007681;28;20091;-82
2023/01/19 15:01:38;;;;;;;7.00;2.80;;;;;;;;;;5026130;28;20075;-83
2023/01/19 15:04:03;;;;;;;5.00;2.33;;;;;;;;;;5025813;28;20036;-83
2023/01/19 15:06:28;;;;;;;7.07;2.30;;;;;;;;;;5025223;28;20021;-82